Time;durP1;ratioP1;P1;durP2;ratioP2;P2;SDS_P1;SDS_P2;PMS_P1;PMS_P2;Temp;Humidity;BMP_temperature;BMP_pressure;BME280_temperature;BME280_humidity;BME280_pressure;Samples;Min_cycle;Max_cycle;Signal;HPM_P1;HPM_P2
2022/03/22 00:01:25;;;;;;;17.73;13.85;;;;;;;9.28;44.67;101783.59;5113347;28;20388;-79
2022/03/22 00:03:51;;;;;;;20.02;13.90;;;;;;;9.32;44.11;101787.53;5095004;28;20464;-79
2022/03/22 00:06:18;;;;;;;19.43;13.43;;;;;;;9.30;45.22;101792.31;5110762;28;20497;-79
2022/03/22 00:08:44;;;;;;;19.05;13.55;;;;;;;9.25;45.20;101789.41;5105243;28;20406;-78
2022/03/22 00:11:09;;;;;;;16.95;13.02;;;;;;;9.22;45.33;101792.53;5095128;28;20414;-78
2022/03/22 00:13:34;;;;;;;17.77;13.53;;;;;;;9.17;46.33;101789.59;5071686;28;20448;-79
2022/03/22 00:16:00;;;;;;;23.60;14.30;;;;;;;9.13;46.02;101793.72;5101862;28;20868;-78
2022/03/22 00:18:25;;;;;;;18.17;13.90;;;;;;;9.09;46.63;101797.91;5073191;28;20418;-78
2022/03/22 00:20:51;;;;;;;19.87;13.40;;;;;;;9.07;46.68;101800.78;5093097;28;20400;-78
2022/03/22 00:23:19;;;;;;;18.93;13.30;;;;;;;9.00;45.89;101797.22;5104881;28;20835;-78
2022/03/22 00:25:44;;;;;;;16.50;12.45;;;;;;;8.97;45.35;101792.22;5086576;28;20402;-78
2022/03/22 00:28:10;;;;;;;18.00;13.37;;;;;;;8.93;45.42;101790.09;5089471;28;20403;-78
2022/03/22 00:30:35;;;;;;;18.30;13.47;;;;;;;8.88;45.20;101790.72;5113197;27;20400;-78
2022/03/22 00:33:03;;;;;;;18.80;13.60;;;;;;;8.89;45.97;101796.97;5095495;28;20493;-78
2022/03/22 00:35:30;;;;;;;21.33;14.20;;;;;;;8.86;46.24;101792.78;5106209;28;20436;-78
2022/03/22 00:37:57;;;;;;;19.75;14.02;;;;;;;8.85;45.01;101794.69;5097852;28;20526;-78
2022/03/22 00:40:24;;;;;;;22.60;13.98;;;;;;;8.84;46.13;101792.16;5109070;28;20906;-78
2022/03/22 00:42:52;;;;;;;19.07;13.20;;;;;;;8.83;45.58;101793.19;5112554;28;20388;-79
2022/03/22 00:45:18;;;;;;;22.05;13.85;;;;;;;8.77;45.94;101791.28;5087787;28;20415;-78
2022/03/22 00:47:45;;;;;;;23.02;14.50;;;;;;;8.74;46.31;101792.53;5111876;28;20431;-78
2022/03/22 00:50:12;;;;;;;23.13;13.68;;;;;;;8.69;45.99;101795.00;5109089;28;20400;-78
2022/03/22 00:52:37;;;;;;;17.63;13.70;;;;;;;8.63;46.85;101800.34;5102540;28;20952;-78
2022/03/22 00:55:05;;;;;;;17.67;14.17;;;;;;;8.60;46.81;101798.06;5109828;28;20404;-79
2022/03/22 00:57:38;;;;;;;20.35;14.05;;;;;;;8.59;47.45;101791.00;5111835;28;20384;-79
2022/03/22 01:00:11;;;;;;;18.50;13.85;;;;;;;8.55;46.93;101795.13;5103558;28;20412;-79
2022/03/22 01:02:38;;;;;;;16.25;13.25;;;;;;;8.54;47.51;101788.88;5112184;28;20380;-78
2022/03/22 01:05:11;;;;;;;20.17;13.65;;;;;;;8.50;46.44;101790.31;5111626;28;20392;-78
2022/03/22 01:07:37;;;;;;;17.17;13.00;;;;;;;8.46;46.72;101782.81;5084139;28;20447;-78
2022/03/22 01:10:05;;;;;;;18.33;13.63;;;;;;;8.44;47.28;101782.16;5109939;28;20828;-78
2022/03/22 01:12:32;;;;;;;18.40;13.73;;;;;;;8.36;47.00;101788.59;5085393;28;20481;-78
2022/03/22 01:14:57;;;;;;;19.75;14.13;;;;;;;8.36;47.08;101783.19;5088663;28;20402;-78
2022/03/22 01:17:22;;;;;;;18.77;12.93;;;;;;;8.35;46.87;101778.81;5111820;28;20429;-78
2022/03/22 01:19:47;;;;;;;18.40;14.03;;;;;;;8.31;46.93;101782.94;5109508;28;20408;-78
2022/03/22 01:22:14;;;;;;;19.30;13.53;;;;;;;8.29;46.61;101775.03;5101961;28;20476;-78
2022/03/22 01:24:40;;;;;;;16.30;12.82;;;;;;;8.20;46.40;101778.06;5111699;28;20389;-78
2022/03/22 01:27:05;;;;;;;18.20;13.50;;;;;;;8.11;46.69;101773.81;5111550;28;20418;-78
2022/03/22 01:29:30;;;;;;;20.07;13.67;;;;;;;8.06;47.34;101773.59;5092110;28;20407;-78
2022/03/22 01:31:56;;;;;;;17.90;13.37;;;;;;;8.09;47.48;101771.34;5092483;28;20440;-78
2022/03/22 01:34:21;;;;;;;23.67;15.03;;;;;;;8.11;47.61;101776.53;5106340;28;20384;-78
2022/03/22 01:36:47;;;;;;;16.75;13.60;;;;;;;8.09;48.01;101770.50;5081918;28;20414;-78
2022/03/22 01:39:12;;;;;;;20.43;14.73;;;;;;;8.06;47.48;101777.13;5101943;28;20808;-78
2022/03/22 01:41:37;;;;;;;24.27;14.57;;;;;;;8.04;47.83;101778.31;5082505;28;20404;-78
2022/03/22 01:44:03;;;;;;;22.00;14.55;;;;;;;8.00;47.51;101782.47;5111566;28;20381;-78
2022/03/22 01:46:29;;;;;;;22.75;14.50;;;;;;;7.87;47.93;101782.38;5111219;28;20385;-78
2022/03/22 01:48:54;;;;;;;22.30;14.90;;;;;;;7.81;48.44;101774.00;5094513;28;20492;-78
2022/03/22 01:51:21;;;;;;;23.50;15.97;;;;;;;7.77;48.47;101771.91;5075833;28;20416;-78
2022/03/22 01:53:48;;;;;;;19.48;13.63;;;;;;;7.68;49.44;101770.34;5111478;28;20784;-78
2022/03/22 01:56:14;;;;;;;19.13;14.17;;;;;;;7.61;49.38;101777.53;5097449;28;20445;-78
2022/03/22 01:58:39;;;;;;;19.98;13.70;;;;;;;7.58;49.04;101772.53;5089936;28;20887;-78
2022/03/22 02:06:35;;;;;;;18.92;14.10;;;;;;;7.45;48.80;101765.16;5096354;28;20387;-78
2022/03/22 02:09:01;;;;;;;19.75;14.20;;;;;;;7.45;49.34;101765.16;5096476;28;20402;-78
2022/03/22 02:11:26;;;;;;;20.77;14.77;;;;;;;7.49;49.11;101768.31;5085605;28;20886;-78
2022/03/22 02:13:52;;;;;;;20.42;13.55;;;;;;;7.48;48.47;101761.25;5092846;28;20403;-78
2022/03/22 02:16:17;;;;;;;15.97;12.47;;;;;;;7.31;48.63;101763.34;5093776;28;20924;-78
2022/03/22 02:18:44;;;;;;;17.80;13.60;;;;;;;7.13;49.47;101763.81;5105540;28;20416;-78
2022/03/22 02:21:14;;;;;;;19.52;15.63;;;;;;;7.04;49.85;101753.34;5105293;28;20464;-78
2022/03/22 02:23:50;;;;;;;21.67;14.25;;;;;;;6.97;50.04;101752.41;5111886;28;20372;-78
2022/03/22 02:26:17;;;;;;;20.73;14.25;;;;;;;6.89;50.94;101757.91;5081866;28;20388;-78
2022/03/22 02:28:43;;;;;;;17.40;13.80;;;;;;;6.85;51.57;101757.44;5090374;28;20433;-78
2022/03/22 02:31:09;;;;;;;19.90;13.97;;;;;;;6.78;51.81;101761.94;5101960;28;20438;-78
2022/03/22 02:33:34;;;;;;;20.25;13.48;;;;;;;6.74;51.24;101758.78;5076615;28;20396;-78
2022/03/22 02:36:00;;;;;;;19.30;13.97;;;;;;;6.69;51.93;101763.88;5114984;28;20411;-78
2022/03/22 02:38:26;;;;;;;20.23;13.33;;;;;;;6.66;51.43;101768.81;5104968;28;20400;-78
2022/03/22 02:40:51;;;;;;;21.00;13.97;;;;;;;6.60;51.02;101765.03;5106403;28;20758;-77
2022/03/22 02:43:16;;;;;;;18.63;13.47;;;;;;;6.57;51.32;101767.25;5114931;28;20939;-78
2022/03/22 02:45:42;;;;;;;19.83;13.10;;;;;;;6.57;51.45;101760.00;5112225;28;20391;-78
2022/03/22 02:48:07;;;;;;;19.43;13.73;;;;;;;6.56;51.51;101762.88;5110007;28;20427;-78
2022/03/22 02:50:33;;;;;;;19.53;13.57;;;;;;;6.54;51.64;101767.63;5106473;28;20400;-78
2022/03/22 02:53:00;;;;;;;18.98;13.10;;;;;;;6.55;51.82;101766.63;5114514;28;20384;-78
2022/03/22 02:55:25;;;;;;;18.55;13.65;;;;;;;6.57;50.70;101767.25;5095835;28;20384;-78
2022/03/22 02:57:50;;;;;;;19.73;14.45;;;;;;;6.56;50.91;101761.03;5104508;28;20797;-78
2022/03/22 03:00:17;;;;;;;18.67;13.73;;;;;;;6.56;51.11;101771.78;5099824;28;20763;-78
2022/03/22 03:02:50;;;;;;;18.67;14.03;;;;;;;6.58;51.11;101766.25;5114272;28;20380;-78
2022/03/22 03:05:20;;;;;;;19.60;13.67;;;;;;;6.58;51.99;101771.63;5113977;28;20731;-78
2022/03/22 03:07:46;;;;;;;18.27;13.88;;;;;;;6.55;51.68;101772.00;5107810;28;20400;-78
2022/03/22 03:10:12;;;;;;;19.58;13.60;;;;;;;6.51;51.19;101771.53;5088383;28;20411;-78
2022/03/22 03:12:38;;;;;;;18.13;14.07;;;;;;;6.46;51.38;101786.56;5093656;28;20395;-78
2022/03/22 03:15:06;;;;;;;17.27;13.63;;;;;;;6.44;51.12;101778.69;5105671;28;20878;-78
2022/03/22 03:17:31;;;;;;;20.00;14.43;;;;;;;6.45;51.40;101777.66;5097679;28;20407;-78
2022/03/22 03:19:57;;;;;;;19.40;13.33;;;;;;;6.52;51.33;101777.75;5096152;28;20420;-78
2022/03/22 03:22:23;;;;;;;17.50;13.27;;;;;;;6.54;50.89;101781.94;5097188;28;20438;-78
2022/03/22 03:24:49;;;;;;;19.02;14.10;;;;;;;6.55;50.77;101786.28;5108110;27;20429;-78
2022/03/22 03:27:15;;;;;;;21.50;14.33;;;;;;;6.55;50.69;101786.28;5100776;28;20384;-78
2022/03/22 03:29:40;;;;;;;20.70;13.93;;;;;;;6.52;50.43;101793.91;5105239;28;20477;-78
2022/03/22 03:32:06;;;;;;;20.33;14.87;;;;;;;6.46;51.18;101789.25;5102672;28;20393;-78
2022/03/22 03:34:31;;;;;;;20.17;14.50;;;;;;;6.44;51.31;101788.63;5080810;28;20833;-78
2022/03/22 03:36:56;;;;;;;23.17;15.03;;;;;;;6.36;51.42;101788.69;5109734;28;20428;-78
2022/03/22 03:39:22;;;;;;;19.67;13.70;;;;;;;6.31;51.68;101793.81;5098465;28;20427;-78
2022/03/22 03:41:53;;;;;;;20.63;15.03;;;;;;;6.23;51.29;101792.03;5105747;28;20398;-78
2022/03/22 03:47:12;;;;;;;18.40;14.27;;;;;;;6.07;52.73;101801.09;5105195;28;20458;-78
2022/03/22 03:49:41;;;;;;;19.70;13.53;;;;;;;6.02;53.24;101797.31;5109835;28;20619;-78
2022/03/22 03:52:11;;;;;;;20.20;14.05;;;;;;;5.96;53.55;101798.84;5113585;28;20395;-78
2022/03/22 03:54:37;;;;;;;20.42;14.15;;;;;;;5.90;53.28;101802.28;5106339;28;20411;-78
2022/03/22 03:57:02;;;;;;;21.73;13.90;;;;;;;5.87;53.08;101805.31;5091610;28;20404;-78
2022/03/22 03:59:28;;;;;;;17.92;13.52;;;;;;;5.76;52.93;101803.88;5093279;28;20416;-78
2022/03/22 04:01:53;;;;;;;17.98;13.93;;;;;;;5.68;53.81;101808.47;5087321;28;20774;-77
2022/03/22 04:04:19;;;;;;;20.60;14.23;;;;;;;5.58;53.42;101808.72;5110567;28;20420;-78
2022/03/22 04:06:47;;;;;;;23.10;15.15;;;;;;;5.48;53.44;101816.19;5094461;28;20487;-78
2022/03/22 04:09:12;;;;;;;19.48;14.25;;;;;;;5.39;53.55;101813.75;5112928;28;20743;-78
2022/03/22 04:11:38;;;;;;;22.20;14.53;;;;;;;5.34;53.81;101810.72;5100875;28;20398;-78
2022/03/22 04:14:04;;;;;;;22.07;14.73;;;;;;;5.30;54.17;101821.03;5097596;28;20407;-79
2022/03/22 04:16:30;;;;;;;19.77;13.77;;;;;;;5.26;54.32;101813.50;5077857;28;20728;-78
2022/03/22 04:18:55;;;;;;;20.63;14.50;;;;;;;5.22;54.02;101816.53;5106020;28;20869;-78
2022/03/22 04:21:20;;;;;;;20.70;14.60;;;;;;;5.19;54.37;101816.88;5081302;28;20448;-78
2022/03/22 04:23:46;;;;;;;19.60;14.20;;;;;;;5.16;54.15;101819.94;5080035;28;20443;-78
2022/03/22 04:26:11;;;;;;;24.10;15.35;;;;;;;5.13;54.41;101814.06;5082544;28;20428;-78
2022/03/22 04:34:05;;;;;;;19.00;14.57;;;;;;;5.14;55.06;101811.19;5101641;28;20892;-78
2022/03/22 04:36:30;;;;;;;17.13;13.40;;;;;;;5.12;55.24;101807.84;5081638;28;20401;-78
2022/03/22 04:38:56;;;;;;;17.37;13.57;;;;;;;5.07;54.55;101823.66;5109572;28;20400;-78
2022/03/22 04:41:22;;;;;;;17.90;14.53;;;;;;;5.04;55.13;101821.31;5085682;28;20433;-77
2022/03/22 04:43:48;;;;;;;21.77;14.55;;;;;;;5.08;54.92;101821.81;5079687;28;20380;-78
2022/03/22 04:46:18;;;;;;;20.63;15.03;;;;;;;5.04;54.83;101820.47;5112400;28;20388;-78
2022/03/22 04:48:45;;;;;;;21.85;15.15;;;;;;;5.08;54.97;101816.44;5105511;28;20431;-78
2022/03/22 04:56:45;;;;;;;23.50;14.80;;;;;;;5.13;55.23;101824.81;5103084;28;20412;-78
2022/03/22 04:59:11;;;;;;;18.27;13.63;;;;;;;5.08;55.01;101825.34;5102915;28;20479;-78
2022/03/22 05:01:36;;;;;;;20.70;14.27;;;;;;;5.09;55.42;101826.19;5110554;28;20500;-78
2022/03/22 05:04:02;;;;;;;20.33;15.40;;;;;;;5.08;55.32;101825.34;5093803;28;20393;-78
2022/03/22 05:06:28;;;;;;;23.87;15.07;;;;;;;5.00;55.26;101830.75;5093896;28;20392;-78
2022/03/22 05:08:54;;;;;;;21.10;15.10;;;;;;;4.90;55.38;101837.34;5109030;28;20410;-78
2022/03/22 05:11:20;;;;;;;20.83;14.83;;;;;;;4.79;55.18;101832.34;5089075;28;20400;-77
2022/03/22 05:13:45;;;;;;;21.10;14.52;;;;;;;4.61;55.93;101833.41;5112028;28;20867;-78
2022/03/22 05:16:10;;;;;;;20.73;13.60;;;;;;;4.37;56.25;101832.66;5101187;28;20408;-78
2022/03/22 05:18:36;;;;;;;17.93;13.93;;;;;;;4.34;56.99;101825.78;5084912;28;20408;-80
2022/03/22 05:21:06;;;;;;;18.02;14.05;;;;;;;4.39;56.91;101830.63;5095318;28;20423;-78
2022/03/22 05:23:32;;;;;;;19.60;14.95;;;;;;;4.30;56.91;101832.50;5093810;28;20456;-78
2022/03/22 05:25:58;;;;;;;104.18;60.72;;;;;;;4.16;57.09;101822.44;5079540;28;20464;-78
2022/03/22 05:28:23;;;;;;;94.40;54.85;;;;;;;4.35;57.65;101827.44;5105495;27;20408;-78
2022/03/22 05:30:48;;;;;;;56.93;35.63;;;;;;;4.57;57.12;101826.75;5085986;28;20454;-78
2022/03/22 05:33:13;;;;;;;53.83;33.53;;;;;;;4.67;56.93;101838.13;5111949;28;20438;-76
2022/03/22 05:35:39;;;;;;;50.10;31.13;;;;;;;4.76;56.85;101830.84;5096471;28;20869;-80
2022/03/22 05:38:05;;;;;;;45.67;29.60;;;;;;;4.64;56.44;101827.69;5060477;28;20401;-77
2022/03/22 05:40:30;;;;;;;37.37;24.20;;;;;;;4.32;57.54;101830.47;5080850;28;20490;-79
2022/03/22 05:42:56;;;;;;;44.03;25.70;;;;;;;4.54;57.40;101837.81;5091437;28;20390;-77
2022/03/22 05:45:23;;;;;;;38.90;24.07;;;;;;;4.69;57.51;101838.78;5088877;28;20434;-77
2022/03/22 05:47:48;;;;;;;26.73;17.05;;;;;;;4.79;56.70;101841.25;5085300;28;20428;-76
2022/03/22 05:50:14;;;;;;;24.90;16.57;;;;;;;4.85;56.36;101845.94;5087780;28;20397;-76
2022/03/22 05:52:44;;;;;;;29.77;17.43;;;;;;;4.90;55.88;101845.41;5097414;28;20431;-77
2022/03/22 05:55:10;;;;;;;20.77;15.13;;;;;;;4.89;56.01;101846.41;5096548;28;20414;-77
2022/03/22 05:57:36;;;;;;;25.70;13.95;;;;;;;4.84;55.77;101843.44;5078568;28;20801;-77
2022/03/22 06:00:01;;;;;;;23.02;14.30;;;;;;;4.74;56.01;101846.31;5089364;28;20458;-78
2022/03/22 06:02:26;;;;;;;21.33;14.43;;;;;;;4.69;56.45;101851.34;5115384;28;20384;-78
2022/03/22 06:04:51;;;;;;;20.33;14.83;;;;;;;4.71;56.44;101852.00;5093211;28;20936;-77
2022/03/22 06:07:19;;;;;;;20.93;13.63;;;;;;;4.76;57.00;101854.19;5069685;28;20382;-77
2022/03/22 06:09:45;;;;;;;20.65;13.90;;;;;;;4.84;57.11;101854.16;5092618;28;20380;-76
2022/03/22 06:12:11;;;;;;;18.42;14.05;;;;;;;4.92;56.92;101852.28;5071395;28;20936;-77
2022/03/22 06:14:36;;;;;;;24.83;16.13;;;;;;;5.04;56.35;101852.72;5097975;28;20403;-77
2022/03/22 06:17:01;;;;;;;31.83;16.47;;;;;;;5.14;56.72;101850.66;5071748;28;20431;-76
2022/03/22 06:19:27;;;;;;;24.80;15.57;;;;;;;5.28;56.52;101857.13;5105201;28;20428;-81
2022/03/22 06:21:52;;;;;;;22.52;15.07;;;;;;;5.30;56.42;101857.81;5100261;28;20413;-77
2022/03/22 06:24:17;;;;;;;23.60;15.73;;;;;;;5.26;55.73;101854.66;5107877;28;20400;-78
2022/03/22 06:26:43;;;;;;;23.27;16.20;;;;;;;5.12;56.59;101861.59;5095781;28;20409;-78
2022/03/22 06:29:08;;;;;;;22.83;16.25;;;;;;;5.00;56.95;101863.00;5078651;28;20411;-77
2022/03/22 06:31:34;;;;;;;25.27;17.50;;;;;;;5.17;56.04;101863.78;5095466;28;20779;-77
2022/03/22 06:34:01;;;;;;;24.00;17.83;;;;;;;5.09;56.46;101866.47;5112953;28;21004;-77
2022/03/22 06:36:27;;;;;;;26.15;18.35;;;;;;;5.09;56.73;101859.25;5083396;28;20411;-79
2022/03/22 06:38:53;;;;;;;25.83;18.58;;;;;;;5.21;55.73;101865.91;5102229;28;20400;-78
2022/03/22 06:41:18;;;;;;;23.37;17.57;;;;;;;5.43;55.34;101858.09;5098294;28;20429;-77
2022/03/22 06:43:43;;;;;;;26.30;18.33;;;;;;;5.60;55.60;101862.31;5096097;28;20455;-77
2022/03/22 06:46:10;;;;;;;25.70;16.40;;;;;;;5.83;54.77;101867.72;5077119;28;20413;-77
2022/03/22 06:48:35;;;;;;;30.87;21.00;;;;;;;6.10;53.54;101867.19;5074951;28;20447;-77
2022/03/22 06:51:01;;;;;;;28.07;18.27;;;;;;;6.28;52.93;101864.16;5078796;28;20515;-76
2022/03/22 06:53:26;;;;;;;31.85;21.60;;;;;;;6.57;52.37;101866.91;5113065;28;20398;-77
2022/03/22 06:55:52;;;;;;;30.53;20.27;;;;;;;6.71;52.38;101866.94;5088580;28;20412;-76
2022/03/22 06:58:22;;;;;;;29.25;18.45;;;;;;;6.58;51.79;101872.13;5094059;28;20431;-76
2022/03/22 07:00:48;;;;;;;24.70;16.75;;;;;;;6.39;52.38;101869.13;5097127;28;21734;-76
2022/03/22 07:03:14;;;;;;;22.02;16.25;;;;;;;6.48;52.80;101878.78;5084179;28;20414;-77
2022/03/22 07:05:42;;;;;;;22.27;16.15;;;;;;;6.62;51.85;101872.56;5085104;28;20442;-76
2022/03/22 07:08:07;;;;;;;24.90;17.80;;;;;;;6.62;51.41;101872.56;5110551;28;20444;-77
2022/03/22 07:10:33;;;;;;;25.33;17.83;;;;;;;6.65;50.86;101875.72;5106242;28;20596;-76
2022/03/22 07:13:03;;;;;;;25.67;17.87;;;;;;;6.73;51.43;101883.72;5076729;28;20915;-77
2022/03/22 07:15:31;;;;;;;22.77;16.35;;;;;;;6.74;51.07;101877.34;5092151;28;20871;-77
2022/03/22 07:18:03;;;;;;;25.33;15.90;;;;;;;6.73;50.87;101881.03;5084056;28;20418;-77
2022/03/22 07:20:29;;;;;;;24.55;16.55;;;;;;;6.75;51.00;101880.88;5093264;28;20521;-77
2022/03/22 07:22:55;;;;;;;24.40;16.48;;;;;;;6.94;51.11;101879.47;5094548;28;20948;-78
2022/03/22 07:25:20;;;;;;;25.50;15.90;;;;;;;7.05;51.15;101879.81;5086360;28;20396;-78
2022/03/22 07:27:46;;;;;;;21.20;15.63;;;;;;;7.10;50.59;101888.19;5087027;28;20454;-77
2022/03/22 07:30:12;;;;;;;22.90;17.00;;;;;;;7.10;50.29;101885.50;5113660;28;20449;-77
2022/03/22 07:32:42;;;;;;;27.25;16.58;;;;;;;7.09;50.21;101882.97;5101655;28;21058;-78
2022/03/22 07:35:08;;;;;;;23.92;16.92;;;;;;;7.10;51.85;101884.66;5113874;28;20408;-77
2022/03/22 07:37:35;;;;;;;21.70;16.67;;;;;;;7.19;52.18;101891.59;5105647;28;20415;-78
2022/03/22 07:40:02;;;;;;;24.10;16.85;;;;;;;7.26;51.63;101890.69;5093883;28;20497;-78
2022/03/22 07:42:29;;;;;;;23.90;16.63;;;;;;;7.31;51.51;101890.94;5092746;28;20866;-78
2022/03/22 07:44:56;;;;;;;25.20;16.90;;;;;;;7.37;52.68;101889.38;5080093;28;20407;-78
2022/03/22 07:47:22;;;;;;;21.45;16.58;;;;;;;7.43;51.47;101887.75;5080320;28;20418;-78
2022/03/22 07:55:15;;;;;;;22.48;16.45;;;;;;;7.79;50.10;101893.97;5091569;28;20412;-77
2022/03/22 07:57:40;;;;;;;24.50;17.80;;;;;;;7.91;50.01;101897.84;5061307;28;20400;-78
2022/03/22 08:00:09;;;;;;;20.60;16.87;;;;;;;7.89;50.56;101899.06;5107459;28;20431;-78
2022/03/22 08:02:36;;;;;;;29.30;17.37;;;;;;;7.95;49.46;101901.81;5087411;28;20484;-77
2022/03/22 08:05:04;;;;;;;21.35;17.08;;;;;;;8.06;50.13;101908.56;5105855;28;20384;-78
2022/03/22 08:07:30;;;;;;;20.95;15.75;;;;;;;8.10;49.82;101904.47;5081247;28;20433;-78
2022/03/22 08:09:56;;;;;;;22.90;15.48;;;;;;;8.17;49.75;101908.03;5098724;28;20899;-78
2022/03/22 08:12:21;;;;;;;21.23;16.17;;;;;;;8.26;50.55;101909.59;5094746;28;20476;-78
2022/03/22 08:14:46;;;;;;;23.17;16.20;;;;;;;8.25;49.72;101911.47;5109052;28;20422;-78
2022/03/22 08:17:12;;;;;;;21.07;16.13;;;;;;;8.31;50.16;101909.88;5079052;28;20415;-78
2022/03/22 08:19:37;;;;;;;21.90;15.93;;;;;;;8.43;48.93;101911.00;5061875;28;20416;-77
2022/03/22 08:22:02;;;;;;;21.73;15.47;;;;;;;8.41;48.80;101917.63;5112194;28;20748;-79
2022/03/22 08:24:28;;;;;;;23.73;16.17;;;;;;;8.56;49.45;101915.69;5101375;28;20404;-78
2022/03/22 08:26:53;;;;;;;27.23;16.20;;;;;;;8.71;49.32;101913.72;5108453;28;20839;-78
2022/03/22 08:29:18;;;;;;;21.10;15.53;;;;;;;8.90;49.30;101902.19;5112480;28;20442;-78
2022/03/22 08:31:44;;;;;;;20.67;15.57;;;;;;;9.07;48.57;101897.28;5084568;28;20492;-78
2022/03/22 08:34:09;;;;;;;20.35;15.02;;;;;;;9.19;48.26;101896.53;5097940;28;20866;-78
2022/03/22 08:36:34;;;;;;;23.47;16.47;;;;;;;9.32;47.85;101896.59;5104037;28;20398;-78
2022/03/22 08:39:00;;;;;;;22.85;15.35;;;;;;;9.56;47.27;101897.94;5094564;28;20934;-77
2022/03/22 08:41:25;;;;;;;20.25;15.40;;;;;;;9.64;47.32;101897.75;5104529;28;20504;-78
2022/03/22 08:43:52;;;;;;;20.10;15.53;;;;;;;9.70;47.43;101896.09;5101848;28;20811;-78
2022/03/22 08:46:20;;;;;;;20.95;15.05;;;;;;;9.79;47.19;101909.25;5091187;28;20898;-78
2022/03/22 08:48:46;;;;;;;20.47;16.10;;;;;;;10.02;46.61;101897.19;5072594;28;20403;-78
2022/03/22 08:51:13;;;;;;;21.67;15.90;;;;;;;10.15;46.55;101898.09;5093223;28;20476;-78
2022/03/22 08:53:38;;;;;;;19.55;15.27;;;;;;;9.97;47.10;101905.13;5112131;28;20412;-78
2022/03/22 08:56:06;;;;;;;21.17;15.93;;;;;;;10.11;46.44;101901.41;5081350;28;20663;-78
2022/03/22 08:58:32;;;;;;;23.45;15.38;;;;;;;10.18;46.46;101900.38;5097358;28;20384;-78
2022/03/22 09:00:58;;;;;;;21.87;16.43;;;;;;;10.21;46.31;101902.66;5111563;28;20433;-79
2022/03/22 09:03:26;;;;;;;21.53;15.00;;;;;;;10.18;46.85;101904.94;5089959;28;21100;-79
2022/03/22 09:06:11;;;;;;;18.23;14.65;;;;;;;10.19;46.55;101901.22;5082565;28;20399;-78
2022/03/22 09:08:38;;;;;;;24.15;15.38;;;;;;;10.13;45.93;101905.56;5085907;28;20902;-77
2022/03/22 09:11:05;;;;;;;20.67;15.23;;;;;;;10.20;46.05;101900.19;5110094;28;20482;-77
2022/03/22 09:13:31;;;;;;;19.63;15.03;;;;;;;10.54;45.37;101908.09;5101681;28;20471;-77
2022/03/22 09:15:56;;;;;;;20.73;14.27;;;;;;;10.77;44.59;101908.47;5090821;28;20883;-77
2022/03/22 09:18:22;;;;;;;19.85;15.27;;;;;;;11.08;43.64;101906.97;5094723;28;20842;-77
2022/03/22 09:20:48;;;;;;;20.38;14.77;;;;;;;11.34;42.27;101901.44;5087180;28;20518;-77
2022/03/22 09:23:14;;;;;;;17.63;14.70;;;;;;;11.59;41.51;101901.56;5106551;28;20451;-77
2022/03/22 09:25:41;;;;;;;21.30;14.32;;;;;;;12.03;41.17;101906.13;5082337;28;20468;-78
2022/03/22 09:28:07;;;;;;;17.10;12.77;;;;;;;12.60;38.94;101902.31;5086242;28;20419;-77
2022/03/22 09:30:34;;;;;;;19.80;13.70;;;;;;;12.83;38.06;101905.25;5111272;28;20928;-77
2022/03/22 09:33:02;;;;;;;14.85;12.50;;;;;;;13.70;37.19;101901.31;5107117;28;20462;-77
2022/03/22 09:35:28;;;;;;;17.83;13.75;;;;;;;14.17;36.01;101903.13;5108371;28;20448;-77
2022/03/22 09:37:54;;;;;;;18.95;14.10;;;;;;;14.91;34.00;101894.34;5104274;28;20391;-77
2022/03/22 09:40:20;;;;;;;19.80;13.60;;;;;;;16.17;32.74;101898.78;5086894;28;20426;-77
2022/03/22 09:42:46;;;;;;;19.70;13.70;;;;;;;16.21;32.15;101899.94;5094243;28;20428;-78
2022/03/22 09:45:14;;;;;;;18.08;14.05;;;;;;;18.01;28.94;101899.19;5082567;28;20455;-78
2022/03/22 09:47:42;;;;;;;15.43;13.15;;;;;;;19.72;26.76;101896.78;5069314;28;20414;-76
2022/03/22 09:50:08;;;;;;;16.98;12.93;;;;;;;20.85;25.36;101897.38;5113609;28;20397;-75
2022/03/22 09:52:35;;;;;;;19.87;13.60;;;;;;;21.57;24.77;101907.13;5079176;28;20502;-75
2022/03/22 09:55:02;;;;;;;17.02;13.73;;;;;;;21.31;25.26;101903.63;5111780;28;20433;-76
2022/03/22 09:57:28;;;;;;;14.98;13.38;;;;;;;22.80;23.02;101898.50;5077767;28;20489;-76
2022/03/22 09:59:53;;;;;;;15.45;12.32;;;;;;;24.85;21.17;101900.63;5082865;28;20401;-77
2022/03/22 10:02:34;;;;;;;15.40;12.53;;;;;;;26.44;19.37;101898.56;5107734;28;20392;-77
2022/03/22 10:04:59;;;;;;;16.35;13.30;;;;;;;27.45;17.63;101897.78;5109860;28;20388;-81
2022/03/22 10:07:25;;;;;;;18.93;13.47;;;;;;;28.77;16.57;101898.78;5104340;28;20898;-80
2022/03/22 10:09:59;;;;;;;13.90;12.07;;;;;;;28.98;16.85;101909.22;5106601;28;20451;-77
2022/03/22 10:12:36;;;;;;;13.50;12.15;;;;;;;28.84;16.57;101903.88;5082191;28;20441;-76
2022/03/22 10:15:08;;;;;;;14.23;12.73;;;;;;;29.50;16.31;101902.28;5098732;28;20498;-76
2022/03/22 10:17:34;;;;;;;13.05;11.68;;;;;;;29.68;15.01;101902.97;5102574;28;20411;-77
2022/03/22 10:19:59;;;;;;;12.80;11.48;;;;;;;29.84;15.29;101906.81;5089024;28;21190;-78
2022/03/22 10:22:27;;;;;;;13.33;11.50;;;;;;;30.48;15.06;101898.88;5066765;28;20748;-78
2022/03/22 10:24:56;;;;;;;13.85;11.40;;;;;;;30.11;14.70;101899.88;5090035;28;20398;-77
2022/03/22 10:27:36;;;;;;;12.88;11.48;;;;;;;30.14;15.24;101893.59;5106182;28;20434;-77
2022/03/22 10:30:08;;;;;;;14.65;13.20;;;;;;;30.51;15.43;101887.00;5071149;28;20408;-78
2022/03/22 10:32:36;;;;;;;17.92;13.13;;;;;;;31.65;13.90;101886.88;5076660;28;20404;-80
2022/03/22 10:35:16;;;;;;;16.42;12.52;;;;;;;32.64;13.74;101889.81;5086130;28;20523;-77
2022/03/22 10:37:46;;;;;;;12.75;11.45;;;;;;;32.41;13.57;101891.56;5110793;28;20461;-79
2022/03/22 10:40:40;;;;;;;14.93;11.68;;;;;;;32.28;13.43;101890.81;5095316;28;20435;-78
2022/03/22 10:44:07;;;;;;;12.33;11.07;;;;;;;32.48;13.42;101890.94;5080261;28;20433;-76
2022/03/22 10:46:35;;;;;;;14.40;12.07;;;;;;;32.09;13.28;101882.25;5007122;28;20422;-78
2022/03/22 10:49:09;;;;;;;12.77;11.30;;;;;;;30.61;14.67;101880.97;5012295;28;20479;-77
2022/03/22 10:51:39;;;;;;;14.63;11.33;;;;;;;31.69;14.29;101881.38;5057575;28;20411;-78
2022/03/22 10:54:05;;;;;;;12.65;11.40;;;;;;;32.63;13.37;101881.78;5097046;28;20447;-77
2022/03/22 10:56:31;;;;;;;12.33;11.20;;;;;;;31.96;13.70;101879.81;5092586;28;20402;-78
2022/03/22 10:58:58;;;;;;;12.75;11.45;;;;;;;32.47;13.33;101881.69;5110370;28;20380;-78
2022/03/22 11:01:25;;;;;;;13.30;11.95;;;;;;;31.19;14.14;101873.34;5064288;28;20408;-78
2022/03/22 11:03:56;;;;;;;16.85;11.25;;;;;;;30.44;14.75;101877.53;5114461;28;20380;-79
2022/03/22 11:06:21;;;;;;;13.27;11.95;;;;;;;30.33;14.68;101874.34;5103157;28;20394;-78
2022/03/22 11:08:47;;;;;;;12.93;11.63;;;;;;;31.45;14.35;101870.22;5110315;28;20393;-78
2022/03/22 11:11:12;;;;;;;15.23;11.57;;;;;;;31.83;13.75;101867.81;5108137;28;20404;-78
2022/03/22 11:13:38;;;;;;;13.60;12.10;;;;;;;32.64;12.92;101863.75;5083911;28;20396;-79
